ADDS METAR Data INFO
IDs: Format: Raw Decoded Include TAF

Data at: 1903 UTC 23 Apr 2018

KAQW 231852Z AUTO 31003KT 10SM CLR 19/M09 A3038 RMK AO2 SLP291 T01891094
KAQW 231752Z AUTO VRB06KT 10SM CLR 18/M08 A3041 RMK AO2 SLP302 T01781078 10178 20011 58021
KAQW 231652Z AUTO 34003KT 10SM CLR 17/M08 A3043 RMK AO2 SLP309 T01671083
KAQW 231552Z AUTO 00000KT 10SM CLR 14/M08 A3046 RMK AO2 SLP319 T01441078
KAQW 231452Z AUTO 00000KT 10SM CLR 14/M08 A3047 RMK AO2 SLP324 T01391083 58012
KAQW 231352Z AUTO 00000KT 10SM CLR 10/M05 A3049 RMK AO2 SLP329 T01001050
KAQW 231252Z AUTO 00000KT 10SM CLR 05/M04 A3051 RMK AO2 SLP337 T00501039
KAQW 231152Z AUTO 00000KT 10SM CLR 01/M04 A3051 RMK AO2 SLP338 T00111039 10011 21044 51016
KAQW 231052Z AUTO 00000KT 10SM CLR M03/M05 A3050 RMK AO2 SLP333 T10281050
KAQW 230952Z AUTO 00000KT 10SM CLR M04/M06 A3048 RMK AO2 SLP328 T10391061
KAQW 230852Z AUTO 00000KT 10SM CLR M03/M06 A3046 RMK AO2 SLP321 T10331056 51011
KAQW 230752Z AUTO 00000KT 10SM CLR M03/M06 A3046 RMK AO2 SLP319 T10331056
KAQW 230652Z AUTO 00000KT 10SM CLR M02/M05 A3044 RMK AO2 SLP314 T10221050
KAQW 230552Z AUTO 00000KT 10SM CLR M02/M04 A3043 RMK AO2 SLP310 T10171044 10083 21022 51010
KAQW 230452Z AUTO 00000KT 10SM CLR M01/M04 A3042 RMK AO2 SLP307 T10111044 401561050
KAQW 230352Z AUTO 00000KT 10SM CLR 00/M04 A3041 RMK AO2 SLP304 T00001039
KAQW 230252Z AUTO 00000KT 10SM CLR 01/M04 A3040 RMK AO2 SLP299 T00061044 51024
KAQW 230152Z AUTO 00000KT 10SM CLR 02/M03 A3039 RMK AO2 SLP296 T00221033
KAQW 230052Z AUTO 00000KT 10SM CLR 05/M02 A3036 RMK AO2 SLP286 T00501022
KAQW 222352Z AUTO 00000KT 10SM CLR 09/M04 A3033 RMK AO2 SLP276 T00891044 10156 20089 53005
KAQW 222252Z AUTO 30004KT 10SM CLR 14/M09 A3031 RMK AO2 SLP270 T01391094
KAQW 222152Z AUTO VRB05KT 10SM CLR 15/M09 A3031 RMK AO2 SLP269 T01501094
KAQW 222052Z AUTO VRB06KT 10SM CLR 15/M09 A3031 RMK AO2 SLP270 T01501089 56014
KAQW 221952Z AUTO VRB04G16KT 10SM CLR 15/M08 A3032 RMK AO2 SLP272 T01501078
KAQW 221852Z AUTO 31009G16KT 280V340 10SM CLR 14/M07 A3034 RMK AO2 SLP278 T01441072
KAQW 221752Z AUTO 30008KT 260V350 10SM CLR 13/M08 A3035 RMK AO2 SLP284 T01331083 10139 20006 58013
KAQW 221652Z AUTO VRB06G19KT 10SM CLR 12/M09 A3037 RMK AO2 SLP291 T01221089
KAQW 221552Z AUTO 33008KT 10SM CLR 12/M08 A3039 RMK AO2 SLP295 T01171078
KAQW 221452Z AUTO 34007KT 290V360 10SM CLR 11/M08 A3039 RMK AO2 SLP297 T01061078 57001
KAQW 221352Z AUTO 25004KT 10SM CLR 08/M05 A3039 RMK AO2 SLP298 T00781050
KAQW 221252Z AUTO 00000KT 10SM CLR 04/M03 A3040 RMK AO2 SLP299 T00391033
KAQW 221152Z AUTO 00000KT 10SM CLR 00/M03 A3040 RMK AO2 SLP300 I6000 T00001033 10000 21050 51010
KAQW 221052Z AUTO 00000KT 10SM CLR M03/M05 A3039 RMK AO2 SLP299 T10331050
KAQW 220952Z AUTO 00000KT 10SM CLR M04/M06 A3038 RMK AO2 SLP293 I1000 T10441061
KAQW 220852Z AUTO 00000KT 10SM CLR M04/M06 A3037 RMK AO2 SLP289 T10391061 51004
KAQW 220752Z AUTO 00000KT 10SM CLR M03/M06 A3037 RMK AO2 SLP289 T10331056